aviador You're here:

SBPA Decoded Metar

PORTO ALEGRE in BRAZIL
Report Time2017-12-11 22:00:00
UTC Time2017-12-11 22:53:19
Flight Rules vfr VFR
Wind150° at 11 kt
W.Decomp.*RWY 11: 6.2 kt HW 9.1 kt RCW
W.Rank150° ranks 15
Current wind is above 150° avg. (6.1)
Visibility9999 m
Phenomena:N/A
Clouds:Few 042 Hf
Expected CloudBase > 3,200 ft AGL from Temp-Dew spread
CeilingNone
Temp21°C (ISA +6)
Dew Point13°C (60% RH)
AAT17.9°C
QNH1014 hPa
Density Alt879 ft
Elevation10 ft
Report Wrong Elevation
Raw Report
METAR SBPA 112200Z 15011KT 9999 FEW042 21/13 Q1014=

Extra information for SBPA:More info

Metar Taf Metar & Taf Last 4 Metars F.Rules Stats Wind Profile Meteogram Temp Stats Airport Information Weather charts Add Link Nearby VenuesMetar ALERT Operation Metar Decoded Social comments